createdAt,value
2023-04-29T00:01:05.311Z,6.13
2023-04-29T00:03:34.151Z,6.35
2023-04-29T00:06:03.584Z,6.85
2023-04-29T00:08:33.631Z,6.60
2023-04-29T00:11:02.329Z,7.07
2023-04-29T00:13:30.887Z,6.32
2023-04-29T00:15:59.444Z,6.72
2023-04-29T00:18:28.071Z,6.80
2023-04-29T00:20:58.470Z,7.35
2023-04-29T00:23:27.014Z,7.15
2023-04-29T00:25:57.312Z,6.38
2023-04-29T00:28:25.887Z,7.32
2023-04-29T00:30:55.747Z,7.35
2023-04-29T00:33:24.619Z,6.65
2023-04-29T00:35:53.211Z,7.68
2023-04-29T00:38:22.138Z,7.05
2023-04-29T00:40:50.807Z,6.88
2023-04-29T00:43:21.590Z,8.00
2023-04-29T00:45:50.952Z,7.38
2023-04-29T00:48:19.545Z,8.10
2023-04-29T00:50:48.134Z,8.30
2023-04-29T00:53:16.698Z,9.30
2023-04-29T00:55:45.790Z,8.65
2023-04-29T00:58:14.972Z,8.88
2023-04-29T01:00:47.082Z,9.68
2023-04-29T01:03:16.466Z,10.18
2023-04-29T01:05:51.521Z,9.38
2023-04-29T01:08:30.476Z,10.13
2023-04-29T01:11:09.016Z,9.38
2023-04-29T01:13:44.969Z,10.00
2023-04-29T01:16:22.582Z,8.85
2023-04-29T01:18:56.310Z,8.95
2023-04-29T01:21:32.057Z,9.30
2023-04-29T01:24:02.416Z,9.27
2023-04-29T01:26:35.816Z,9.50
2023-04-29T01:29:28.852Z,9.02
2023-04-29T01:32:09.116Z,9.27
2023-04-29T01:34:48.114Z,8.88
2023-04-29T01:37:23.787Z,8.68
2023-04-29T01:40:02.555Z,9.35
2023-04-29T01:42:40.430Z,8.80
2023-04-29T01:45:17.001Z,8.45
2023-04-29T01:47:47.615Z,9.20
2023-04-29T01:50:23.384Z,8.68
2023-04-29T01:52:52.234Z,8.57
2023-04-29T01:55:22.924Z,8.18
2023-04-29T01:58:08.257Z,7.80
2023-04-29T02:01:00.826Z,8.40
2023-04-29T02:03:32.252Z,8.13
2023-04-29T02:06:02.646Z,6.97
2023-04-29T02:08:31.199Z,7.47
2023-04-29T02:11:01.559Z,7.50
2023-04-29T02:13:48.784Z,8.07
2023-04-29T02:16:18.902Z,8.18
2023-04-29T02:19:14.742Z,8.50
2023-04-29T02:21:44.082Z,8.93
2023-04-29T02:24:15.690Z,11.38
2023-04-29T02:26:45.740Z,10.45
2023-04-29T02:29:15.010Z,11.88
2023-04-29T02:31:45.692Z,11.45
2023-04-29T02:34:14.754Z,14.05
2023-04-29T02:36:43.772Z,13.23
2023-04-29T02:39:12.764Z,14.57
2023-04-29T02:41:42.210Z,14.90
2023-04-29T02:44:14.821Z,14.13
2023-04-29T02:46:45.804Z,14.60
2023-04-29T02:49:14.827Z,14.90
2023-04-29T02:51:43.435Z,15.90
2023-04-29T02:54:12.729Z,15.18
2023-04-29T02:56:41.327Z,15.25
2023-04-29T02:59:10.035Z,16.40
2023-04-29T03:01:40.241Z,15.90
2023-04-29T03:04:09.295Z,16.67
2023-04-29T03:06:38.070Z,15.30
2023-04-29T03:09:06.919Z,17.77
2023-04-29T03:11:35.513Z,18.73
2023-04-29T03:14:04.073Z,17.27
2023-04-29T03:16:32.856Z,17.77
2023-04-29T03:19:03.029Z,17.75
2023-04-29T03:21:31.618Z,17.45
2023-04-29T03:24:00.582Z,18.05
2023-04-29T03:26:34.690Z,18.92
2023-04-29T03:29:05.179Z,17.15
2023-04-29T03:31:35.020Z,18.38
2023-04-29T03:34:04.996Z,17.55
2023-04-29T03:36:37.104Z,17.30
2023-04-29T03:39:09.081Z,17.73
2023-04-29T03:41:37.981Z,17.80
2023-04-29T03:44:06.581Z,18.08
2023-04-29T03:46:35.308Z,18.63
2023-04-29T03:49:05.770Z,18.63
2023-04-29T03:51:34.426Z,18.15
2023-04-29T03:54:15.451Z,18.02
2023-04-29T03:56:44.288Z,19.10
2023-04-29T03:59:14.079Z,18.98
2023-04-29T04:01:43.524Z,20.88
2023-04-29T04:04:15.580Z,20.58
2023-04-29T04:06:51.537Z,19.35
2023-04-29T04:09:22.386Z,21.00
2023-04-29T04:11:51.108Z,22.25
2023-04-29T04:14:20.184Z,21.92
2023-04-29T04:16:50.660Z,22.38
2023-04-29T04:19:20.943Z,23.63
2023-04-29T04:21:49.599Z,23.90
2023-04-29T04:24:18.206Z,25.40
2023-04-29T04:26:46.895Z,25.17
2023-04-29T04:29:30.844Z,25.60
2023-04-29T04:32:02.721Z,25.98
2023-04-29T04:34:33.803Z,26.25
2023-04-29T04:37:04.037Z,27.20
2023-04-29T04:39:33.644Z,28.33
2023-04-29T04:42:03.200Z,28.00
2023-04-29T04:44:34.297Z,28.25
2023-04-29T04:47:08.083Z,29.13
2023-04-29T04:49:53.978Z,29.40
2023-04-29T04:52:23.927Z,28.67
2023-04-29T04:55:04.598Z,30.38
2023-04-29T04:57:37.067Z,30.35
2023-04-29T05:00:06.999Z,30.27
2023-04-29T05:02:35.958Z,30.70
2023-04-29T05:05:06.765Z,30.63
2023-04-29T05:07:37.969Z,31.02
2023-04-29T05:10:08.524Z,33.05
2023-04-29T05:12:43.376Z,32.63
2023-04-29T05:15:12.660Z,33.75
2023-04-29T05:17:41.350Z,32.28
2023-04-29T05:20:12.384Z,32.72
2023-04-29T05:22:40.996Z,32.47
2023-04-29T05:25:10.399Z,33.42
2023-04-29T05:27:39.239Z,32.13
2023-04-29T05:30:12.189Z,31.33
2023-04-29T05:32:40.941Z,28.33
2023-04-29T05:35:14.341Z,27.15
2023-04-29T05:37:43.172Z,27.05
2023-04-29T05:40:27.952Z,26.50
2023-04-29T05:43:09.235Z,23.77
2023-04-29T05:45:39.011Z,24.55
2023-04-29T05:48:07.967Z,23.15
2023-04-29T05:50:37.890Z,22.98
2023-04-29T05:53:06.807Z,23.58
2023-04-29T05:55:35.639Z,24.10
2023-04-29T05:58:04.233Z,24.15
2023-04-29T06:00:32.884Z,24.60
2023-04-29T06:03:10.937Z,24.08
2023-04-29T06:05:42.034Z,23.50
2023-04-29T06:08:35.410Z,22.58
2023-04-29T06:11:06.699Z,22.85
2023-04-29T06:13:35.634Z,22.27
2023-04-29T06:16:04.572Z,24.50
2023-04-29T06:18:35.291Z,24.70
2023-04-29T06:21:05.561Z,24.33
2023-04-29T06:23:34.204Z,23.38
2023-04-29T06:26:07.948Z,21.92
2023-04-29T06:28:36.740Z,20.52
2023-04-29T06:31:05.573Z,22.80
2023-04-29T06:33:34.776Z,20.98
2023-04-29T06:36:03.443Z,20.95
2023-04-29T06:39:08.913Z,18.80
2023-04-29T06:42:10.232Z,20.08
2023-04-29T06:44:54.199Z,19.83
2023-04-29T06:47:22.931Z,19.13
2023-04-29T06:50:09.267Z,19.58
2023-04-29T06:52:38.480Z,18.88
2023-04-29T06:55:11.150Z,18.63
2023-04-29T06:57:40.678Z,17.80
2023-04-29T07:00:10.249Z,17.77
2023-04-29T07:02:39.886Z,19.13
2023-04-29T07:05:09.536Z,17.23
2023-04-29T07:07:39.523Z,17.25
2023-04-29T07:10:10.546Z,16.20
2023-04-29T07:12:39.113Z,15.63
2023-04-29T07:15:08.782Z,16.58
2023-04-29T07:17:37.612Z,15.43
2023-04-29T07:20:07.821Z,15.15
2023-04-29T07:22:36.339Z,15.48
2023-04-29T07:25:05.335Z,14.63
2023-04-29T07:27:35.999Z,14.88
2023-04-29T07:30:05.157Z,15.25
2023-04-29T07:32:33.876Z,16.95
2023-04-29T07:35:06.218Z,15.43
2023-04-29T07:37:34.862Z,15.77
2023-04-29T07:40:03.603Z,14.98
2023-04-29T07:42:32.218Z,15.73
2023-04-29T07:45:02.766Z,14.23
2023-04-29T07:47:31.429Z,14.77
2023-04-29T07:50:00.303Z,14.77
2023-04-29T07:52:29.048Z,14.73
2023-04-29T07:54:57.696Z,14.07
2023-04-29T07:57:26.258Z,14.60
2023-04-29T07:59:55.496Z,14.52
2023-04-29T08:02:25.636Z,14.07
2023-04-29T08:04:59.145Z,14.35
2023-04-29T08:07:28.162Z,14.32
2023-04-29T08:09:56.770Z,12.85
2023-04-29T08:12:25.522Z,13.70
2023-04-29T08:14:54.249Z,13.65
2023-04-29T08:17:25.337Z,14.00
2023-04-29T08:19:53.909Z,14.25
2023-04-29T08:22:22.405Z,13.35
2023-04-29T08:24:51.270Z,12.70
2023-04-29T08:27:21.394Z,13.38
2023-04-29T08:29:49.905Z,14.02
2023-04-29T08:32:32.801Z,13.68
2023-04-29T08:35:01.746Z,12.30
2023-04-29T08:37:30.256Z,13.10
2023-04-29T08:39:58.919Z,13.25
2023-04-29T08:42:34.816Z,12.98
2023-04-29T08:45:04.659Z,13.32
2023-04-29T08:47:35.140Z,12.70
2023-04-29T08:50:05.549Z,13.73
2023-04-29T08:52:34.320Z,13.27
2023-04-29T08:55:03.438Z,12.98
2023-04-29T08:57:39.492Z,13.98
2023-04-29T09:00:10.535Z,12.80
2023-04-29T09:02:46.940Z,12.02
2023-04-29T09:05:15.512Z,13.15
2023-04-29T09:07:45.425Z,14.20
2023-04-29T09:10:14.941Z,13.07
2023-04-29T09:12:43.483Z,14.60
2023-04-29T09:15:12.420Z,14.10
2023-04-29T09:17:46.769Z,13.48
2023-04-29T09:20:29.032Z,14.13
2023-04-29T09:22:59.113Z,14.52
2023-04-29T09:25:28.155Z,15.52
2023-04-29T09:27:57.357Z,14.60
2023-04-29T09:30:26.696Z,13.75
2023-04-29T09:33:08.966Z,14.50
2023-04-29T09:35:38.054Z,14.50
2023-04-29T09:38:11.894Z,13.77
2023-04-29T09:40:57.296Z,13.68
2023-04-29T09:43:27.998Z,12.27
2023-04-29T09:45:56.952Z,13.13
2023-04-29T09:48:33.825Z,13.55
2023-04-29T09:51:03.873Z,12.95
2023-04-29T09:53:33.366Z,12.45
2023-04-29T09:56:03.939Z,12.10
2023-04-29T09:58:37.328Z,11.45
2023-04-29T10:01:07.393Z,12.27
2023-04-29T10:03:39.519Z,11.57
2023-04-29T10:06:09.335Z,12.25
2023-04-29T10:08:38.304Z,11.88
2023-04-29T10:11:08.214Z,11.68
2023-04-29T10:13:38.863Z,10.88
2023-04-29T10:16:18.820Z,12.70
2023-04-29T10:18:53.167Z,11.38
2023-04-29T10:21:25.784Z,11.45
2023-04-29T10:23:57.290Z,12.52
2023-04-29T10:26:29.347Z,12.48
2023-04-29T10:29:00.080Z,12.90
2023-04-29T10:31:30.172Z,12.55
2023-04-29T10:34:01.663Z,12.95
2023-04-29T10:36:31.414Z,14.05
2023-04-29T10:39:01.879Z,13.57
2023-04-29T10:41:35.629Z,13.65
2023-04-29T10:44:06.084Z,14.77
2023-04-29T10:46:34.700Z,15.55
2023-04-29T10:49:06.776Z,15.38
2023-04-29T10:51:36.686Z,16.13
2023-04-29T10:54:09.111Z,16.20
2023-04-29T10:56:42.665Z,14.68
2023-04-29T10:59:13.426Z,16.02
2023-04-29T11:01:47.340Z,16.38
2023-04-29T11:04:18.289Z,16.75
2023-04-29T11:06:48.855Z,16.38
2023-04-29T11:09:22.094Z,15.60
2023-04-29T11:12:02.873Z,16.88
2023-04-29T11:14:33.979Z,18.83
2023-04-29T11:17:04.907Z,17.83
2023-04-29T11:19:36.618Z,18.73
2023-04-29T11:22:11.781Z,21.08
2023-04-29T11:24:51.275Z,19.08
2023-04-29T11:27:22.977Z,18.30
2023-04-29T11:29:52.162Z,19.30
2023-04-29T11:32:23.088Z,18.50
2023-04-29T11:34:53.546Z,17.85
2023-04-29T11:37:23.826Z,18.95
2023-04-29T11:39:53.163Z,17.08
2023-04-29T11:42:22.751Z,19.73
2023-04-29T11:44:56.909Z,21.17
2023-04-29T11:47:29.216Z,21.25
2023-04-29T11:50:05.802Z,21.98
2023-04-29T11:52:34.622Z,20.88
2023-04-29T11:55:03.953Z,19.08
2023-04-29T11:57:32.611Z,17.77
2023-04-29T12:00:01.701Z,18.67
2023-04-29T12:02:31.644Z,17.98
2023-04-29T12:05:01.519Z,18.10
2023-04-29T12:07:32.450Z,18.20
2023-04-29T12:10:01.125Z,16.02
2023-04-29T12:12:31.710Z,15.48
2023-04-29T12:15:00.472Z,15.25
2023-04-29T12:17:29.310Z,15.52
2023-04-29T12:19:58.374Z,16.48
2023-04-29T12:22:34.092Z,18.05
2023-04-29T12:25:05.411Z,18.05
2023-04-29T12:27:34.897Z,18.90
2023-04-29T12:30:03.717Z,18.52
2023-04-29T12:32:34.755Z,19.27
2023-04-29T12:35:03.491Z,19.77
2023-04-29T12:37:35.307Z,19.80
2023-04-29T12:40:05.103Z,21.05
2023-04-29T12:42:34.779Z,23.50
2023-04-29T12:45:04.166Z,24.55
2023-04-29T12:47:34.872Z,27.73
2023-04-29T12:50:03.913Z,30.55
2023-04-29T12:52:35.943Z,31.00
2023-04-29T12:55:06.566Z,32.40
2023-04-29T12:57:35.118Z,31.45
2023-04-29T13:00:03.904Z,30.15
2023-04-29T13:02:32.851Z,30.88
2023-04-29T13:05:01.919Z,30.23
2023-04-29T13:07:30.826Z,28.10
2023-04-29T13:10:02.220Z,27.52
2023-04-29T13:12:30.859Z,28.48
2023-04-29T13:14:59.935Z,28.13
2023-04-29T13:17:28.882Z,28.75
2023-04-29T13:19:57.430Z,28.92
2023-04-29T13:22:26.017Z,26.83
2023-04-29T13:24:55.064Z,25.95
2023-04-29T13:27:25.560Z,27.92
2023-04-29T13:29:54.074Z,33.88
2023-04-29T13:32:24.700Z,35.30
2023-04-29T13:34:53.545Z,34.75
2023-04-29T13:37:22.273Z,30.02
2023-04-29T13:39:57.005Z,31.25
2023-04-29T13:42:27.803Z,31.67
2023-04-29T13:44:57.370Z,28.52
2023-04-29T13:47:29.933Z,33.58
2023-04-29T13:50:36.964Z,31.98
2023-04-29T14:01:01.462Z,38.67
2023-04-29T14:03:14.277Z,37.35
2023-04-29T14:05:43.382Z,40.97
2023-04-29T14:08:12.207Z,42.50
2023-04-29T14:10:41.294Z,41.25
2023-04-29T14:13:11.288Z,41.83
2023-04-29T14:15:39.923Z,45.35
2023-04-29T14:18:09.620Z,44.25
2023-04-29T14:20:38.244Z,44.58
2023-04-29T14:23:06.953Z,44.05
2023-04-29T14:25:35.592Z,43.72
2023-04-29T14:28:04.372Z,44.75
2023-04-29T14:30:34.483Z,42.10
2023-04-29T14:33:03.286Z,43.30
2023-04-29T14:35:32.436Z,44.25
2023-04-29T14:38:01.071Z,41.25
2023-04-29T14:40:29.808Z,40.67
2023-04-29T14:42:58.375Z,40.30
2023-04-29T14:45:26.922Z,35.30
2023-04-29T14:47:57.045Z,34.20
2023-04-29T14:50:25.957Z,35.85
2023-04-29T14:52:57.744Z,35.17
2023-04-29T14:55:26.741Z,34.50
2023-04-29T14:57:55.335Z,32.45
2023-04-29T15:00:23.883Z,33.63
2023-04-29T15:02:55.484Z,32.58
2023-04-29T15:05:25.663Z,31.55
2023-04-29T15:07:54.269Z,30.70
2023-04-29T15:10:23.238Z,26.98
2023-04-29T15:12:52.509Z,27.98
2023-04-29T15:15:21.701Z,27.42
2023-04-29T15:17:50.677Z,25.48
2023-04-29T15:20:19.410Z,22.27
2023-04-29T15:22:49.382Z,24.08
2023-04-29T15:25:18.085Z,24.35
2023-04-29T15:27:47.277Z,23.88
2023-04-29T15:30:16.600Z,24.60
2023-04-29T15:32:45.144Z,23.65
2023-04-29T15:35:13.808Z,24.80
2023-04-29T15:37:42.340Z,26.17
2023-04-29T15:40:13.353Z,30.13
2023-04-29T15:42:41.970Z,29.42
2023-04-29T15:45:11.696Z,28.92
2023-04-29T15:47:40.263Z,29.45
2023-04-29T15:50:10.446Z,30.88
2023-04-29T15:52:39.077Z,29.88
2023-04-29T15:55:08.488Z,27.48
2023-04-29T15:57:41.209Z,27.80
2023-04-29T16:00:11.267Z,29.80
2023-04-29T16:02:39.828Z,27.52
2023-04-29T16:05:09.181Z,27.83
2023-04-29T16:07:37.826Z,30.13
2023-04-29T16:10:07.146Z,29.33
2023-04-29T16:12:35.679Z,28.33
2023-04-29T16:15:08.568Z,26.27
2023-04-29T16:17:37.313Z,23.42
2023-04-29T16:20:06.771Z,24.80
2023-04-29T16:22:35.353Z,24.77
2023-04-29T16:25:04.186Z,25.85
2023-04-29T16:27:32.875Z,26.15
2023-04-29T16:30:01.567Z,27.25
2023-04-29T16:32:33.372Z,25.20
2023-04-29T16:35:02.108Z,25.00
2023-04-29T16:37:30.719Z,25.38
2023-04-29T16:39:59.313Z,26.17
2023-04-29T16:42:27.869Z,25.25
2023-04-29T16:44:56.466Z,24.58
2023-04-29T16:47:25.292Z,25.92
2023-04-29T16:49:55.360Z,25.27
2023-04-29T16:52:24.263Z,25.58
2023-04-29T16:54:52.939Z,23.73
2023-04-29T16:57:22.101Z,23.48
2023-04-29T16:59:50.758Z,22.67
2023-04-29T17:02:19.428Z,24.27
2023-04-29T17:04:48.321Z,26.63
2023-04-29T17:07:19.522Z,24.10
2023-04-29T17:09:48.348Z,24.10
2023-04-29T17:12:16.888Z,22.55
2023-04-29T17:14:45.346Z,24.27
2023-04-29T17:17:13.887Z,21.40
2023-04-29T17:19:42.883Z,23.20
2023-04-29T17:22:11.459Z,23.20
2023-04-29T17:24:44.771Z,22.73
2023-04-29T17:27:13.934Z,21.20
2023-04-29T17:29:42.745Z,23.40
2023-04-29T17:32:13.442Z,21.83
2023-04-29T17:34:42.455Z,22.50
2023-04-29T17:37:11.314Z,22.23
2023-04-29T17:39:41.313Z,20.48
2023-04-29T17:42:09.807Z,20.50
2023-04-29T17:44:38.293Z,21.52
2023-04-29T17:47:09.208Z,20.77
2023-04-29T17:49:37.820Z,23.10
2023-04-29T17:52:06.579Z,22.00
2023-04-29T17:54:35.327Z,22.20
2023-04-29T17:57:05.290Z,20.17
2023-04-29T17:59:33.872Z,18.52
2023-04-29T18:02:02.538Z,19.15
2023-04-29T18:04:31.126Z,19.48
2023-04-29T18:06:59.681Z,20.73
2023-04-29T18:09:28.213Z,19.63
2023-04-29T18:11:56.814Z,18.85
2023-04-29T18:14:28.967Z,20.05
2023-04-29T18:16:58.360Z,20.83
2023-04-29T18:19:27.039Z,18.67
2023-04-29T18:21:58.077Z,21.05
2023-04-29T18:24:27.344Z,19.77
2023-04-29T18:26:57.054Z,20.17
2023-04-29T18:29:27.039Z,21.10
2023-04-29T18:31:55.668Z,20.67
2023-04-29T18:34:24.236Z,20.15
2023-04-29T18:36:53.034Z,17.83
2023-04-29T18:39:21.675Z,20.60
2023-04-29T18:41:50.342Z,18.45
2023-04-29T18:44:19.002Z,21.88
2023-04-29T18:46:48.923Z,19.88
2023-04-29T18:49:18.037Z,22.02
2023-04-29T18:51:47.345Z,23.00
2023-04-29T18:54:17.554Z,22.63
2023-04-29T18:56:48.343Z,22.33
2023-04-29T18:59:19.204Z,24.52
2023-04-29T19:01:49.906Z,24.70
2023-04-29T19:04:18.593Z,24.40
2023-04-29T19:06:47.221Z,23.42
2023-04-29T19:09:16.023Z,25.67
2023-04-29T19:11:44.624Z,25.15
2023-04-29T19:14:15.040Z,25.33
2023-04-29T19:16:43.612Z,25.67
2023-04-29T19:19:13.558Z,25.45
2023-04-29T19:21:42.195Z,23.52
2023-04-29T19:24:10.890Z,24.67
2023-04-29T19:26:40.283Z,23.83
2023-04-29T19:29:08.917Z,25.80
2023-04-29T19:31:38.063Z,26.35
2023-04-29T19:34:06.599Z,26.85
2023-04-29T19:36:37.724Z,26.52
2023-04-29T19:39:06.408Z,25.50
2023-04-29T19:41:35.237Z,24.63
2023-04-29T19:44:03.932Z,27.90
2023-04-29T19:46:32.658Z,25.90
2023-04-29T19:49:01.835Z,29.58
2023-04-29T19:51:30.998Z,30.67
2023-04-29T19:54:01.910Z,28.70
2023-04-29T19:56:30.605Z,27.63
2023-04-29T19:58:59.333Z,27.30
2023-04-29T20:01:27.950Z,27.70
2023-04-29T20:03:56.506Z,27.65
2023-04-29T20:06:25.204Z,26.55
2023-04-29T20:08:54.184Z,26.30
2023-04-29T20:11:24.755Z,26.85
2023-04-29T20:13:53.323Z,26.83
2023-04-29T20:16:23.252Z,27.38
2023-04-29T20:18:51.886Z,28.27
2023-04-29T20:21:20.480Z,27.70
2023-04-29T20:23:49.074Z,26.25
2023-04-29T20:26:19.538Z,26.60
2023-04-29T20:28:49.724Z,27.30
2023-04-29T20:31:18.340Z,27.08
2023-04-29T20:33:46.937Z,27.75
2023-04-29T20:36:15.592Z,29.52
2023-04-29T20:38:44.139Z,29.08
2023-04-29T20:41:12.592Z,27.15
2023-04-29T20:43:41.125Z,26.35
2023-04-29T20:46:13.479Z,27.17
2023-04-29T20:48:42.526Z,27.13
2023-04-29T20:51:12.690Z,26.60
2023-04-29T20:53:41.231Z,29.90
2023-04-29T20:56:11.024Z,29.88
2023-04-29T20:58:39.600Z,32.10
2023-04-29T21:01:08.960Z,30.35
2023-04-29T21:03:39.017Z,30.45
2023-04-29T21:06:07.746Z,29.92
2023-04-29T21:08:36.453Z,27.65
2023-04-29T21:11:07.767Z,29.05
2023-04-29T21:13:36.416Z,30.70
2023-04-29T21:16:05.537Z,28.77
2023-04-29T21:18:34.061Z,27.83
2023-04-29T21:21:04.006Z,28.58
2023-04-29T21:23:32.571Z,27.73
2023-04-29T21:26:01.155Z,28.77
2023-04-29T21:28:29.794Z,30.40
2023-04-29T21:30:59.307Z,29.10
2023-04-29T21:33:28.000Z,29.27
2023-04-29T21:35:56.572Z,29.88
2023-04-29T21:38:26.562Z,30.45
2023-04-29T21:40:55.145Z,28.85
2023-04-29T21:43:23.877Z,29.92
2023-04-29T21:45:54.551Z,30.08
2023-04-29T21:48:23.248Z,30.38
2023-04-29T21:50:51.781Z,29.55
2023-04-29T21:53:20.406Z,30.50
2023-04-29T21:55:50.316Z,31.92
2023-04-29T21:58:20.910Z,30.08
2023-04-29T22:00:58.448Z,28.55
2023-04-29T22:03:27.288Z,27.65
2023-04-29T22:05:56.281Z,30.70
2023-04-29T22:08:25.290Z,30.00
2023-04-29T22:10:55.220Z,28.35
2023-04-29T22:13:23.687Z,31.23
2023-04-29T22:15:52.365Z,30.95
2023-04-29T22:18:21.088Z,28.40
2023-04-29T22:20:49.748Z,31.75
2023-04-29T22:23:18.335Z,28.60
2023-04-29T22:25:46.878Z,28.92
2023-04-29T22:28:16.804Z,28.52
2023-04-29T22:30:47.191Z,30.15
2023-04-29T22:33:16.058Z,29.52
2023-04-29T22:35:44.659Z,29.35
2023-04-29T22:38:13.635Z,28.92
2023-04-29T22:40:42.170Z,29.10
2023-04-29T22:43:10.839Z,29.98
2023-04-29T22:45:40.793Z,28.20
2023-04-29T22:48:09.562Z,28.40
2023-04-29T22:50:39.977Z,30.88
2023-04-29T22:53:08.503Z,31.70
2023-04-29T22:55:37.126Z,29.42
2023-04-29T22:58:05.775Z,31.52
2023-04-29T23:00:34.323Z,31.15
2023-04-29T23:03:04.319Z,31.50
2023-04-29T23:05:33.090Z,31.02
2023-04-29T23:08:02.496Z,32.60
2023-04-29T23:10:33.426Z,30.77
2023-04-29T23:13:02.100Z,28.45
2023-04-29T23:15:31.207Z,30.23
2023-04-29T23:18:00.043Z,30.00
2023-04-29T23:20:30.336Z,30.63
2023-04-29T23:22:58.969Z,28.70
2023-04-29T23:25:27.578Z,29.40
2023-04-29T23:27:56.384Z,29.10
2023-04-29T23:30:24.960Z,28.63
2023-04-29T23:32:53.539Z,29.30
2023-04-29T23:35:22.228Z,28.98
2023-04-29T23:37:52.108Z,29.77
2023-04-29T23:40:20.692Z,29.48
2023-04-29T23:42:49.267Z,27.90
2023-04-29T23:45:18.005Z,27.98
2023-04-29T23:47:46.862Z,27.88
2023-04-29T23:50:15.492Z,29.10
2023-04-29T23:52:44.065Z,31.48
2023-04-29T23:55:13.950Z,29.70
2023-04-29T23:57:42.411Z,31.20
